Allred, TN (38542)

9:20 PM CDT on July 22, 2014 (GMT -0500)
KTNALLON2 Elev 663 ft | 36.58 °N, 85.34 °W | Change Station

Current weather conditions updated 5 seconds ago

Partly Cloudy
Partly Cloudy
78.1 °F
Feels Like 81 °F
N
0.0
Wind Variable Wind from ENE

Tomorrow is forecast to be Much Cooler than today. Showers and thunderstorms late.

Today
High -- | Low -- °F
--% Chance of Precip.
Yesterday
High -- | Low -- °F
Precip. -- in
5:39 AM 7:54 PM
Waning Crescent, 13% visible
Pressure 30.12 in
Visibility 10.0 miles
Clouds Clear
Heat Index 81 °F
Dew Point 75 °F
Humidity 90%
Rainfall 0.00 in
Snow Depth Not available.
UV 0 out of 12
Pollen 3.90 out of 12
Air Quality Not available.
Flu Activity Not available.
METAR KSRB 230215Z AUTO 00000KT 10SM CLR 25/24 A3012 RMK

More Conditions Fewer Conditions

Pressure 30.12 in
Visibility 10.0 miles
Clouds Clear
Heat Index 81 °F
Dew Point 75 °F
Humidity 90%
Rainfall 0.00 in
Snow Depth Not available.
UV 0 out of 12
Pollen 3.90 out of 12
Air Quality Not available.
Flu Activity Not available.
METAR KSRB 230215Z AUTO 00000KT 10SM CLR 25/24 A3012 RMK

More Conditions Fewer Conditions

10-Day Weather Forecast

Almanac

Astronomy

Jul. 22, 2014 Rise Set
Actual Time 5:39 AM CDT 7:54 PM CDT
Civil Twilight 5:10 AM CDT 8:23 PM CDT
Nautical Twilight 4:34 AM CDT 8:59 PM CDT
Astronomical Twilight 3:55 AM CDT 9:38 PM CDT
Moon 2:11 AM CDT (7/22) 4:32 PM CDT (7/22)
Length of Visible Light 15h 13m
Length of Day
14h 14m
Tomorrow will be 1m 27s shorter.
Waning Crescent, 13% of the Moon is Illuminated
Today
Waning Crescent
Jul 26
New
Aug 3
First Quarter
Aug 10
Full
Aug 17
Last Quarter

Today's Extremes

State Highs State Lows

Community

WunderPhotos

Upload Photos

1,736,454 photos uploaded!

Nearby

Snow Depth

Station Depth Elevation
No new snow has been reported.

Earthquake Activity

City Distance Mag. Time & Date
No recent earthquake activity has been reported nearby.
Minimum magnitude displayed is 2.5.

Coastal Water Temperatures

Place Temperature
No Stations Reporting

Nearby Weather Stations

Station Location Temp. Heat Index Dew Point Humidity Wind Precip. Elev Updated Type
Allons, TN 78.1 °F 81 °F 75 °F 90% ENE  at  0.0 mph - / hr 663 ft 9:20 PM CDT Normal
Highlands @ BSF, Jamestown, TN 74.3 °F 73 °F 72 °F 91% ENE  at  0.0 mph - / hr 1637 ft 9:09 PM CDT Normal
Cumberland Cove, Monterey, TN 72.3 °F - 71 °F 96% SE  at  0.0 mph 0.00 in / hr 1863 ft 9:14 PM CDT Normal
On the Square, Celina, TN 76.0 °F 76 °F 73 °F 91% ENE  at  0.0 mph 0.00 in / hr 574 ft 9:20 PM CDT Rapid Fire
Forrest Cove Ln and Forrest Rd, Cookeville, TN 75.0 °F 74 °F 73 °F 92% West  at  0.0 mph 0.00 in / hr 1079 ft 9:20 PM CDT Rapid Fire
Millard Oakley STEM Center, Cookeville, TN 81.6 °F 87 °F 74 °F 77% South  at  0.0 mph 0.00 in / hr 1122 ft 9:20 PM CDT Rapid Fire
Cane Creek, Cookeville, TN 79.9 °F 83 °F 71 °F 73% SW  at  9.9 mph 0.00 in / hr 1125 ft 9:20 PM CDT Rapid Fire

Show More Stations Show Fewer Stations